DBBB/COO METAR and TAF weather

Enter ICAO airport designator
Station Type Date Time Source
DBBB METAR 2024/02/26 17:00 UTC NOAA

DBBB 261700Z 20012KT 9999 SCT012 31/26 Q1008 NOSIG


Station Type Date Time Source
DBBB Decoded METAR 2024/02/26 17:00 UTC NOAA

Cotonou, Benin (DBBB) 06-21N 002-23E 9M
Feb 26, 2024 - 12:00 PM EST / 2024.02.26 1700 UTC
Wind: from the SSW (200 degrees) at 14 MPH (12 KT):0
Visibility: greater than 7 mile(s):0
Sky conditions: partly cloudy
Temperature: 87 F (31 C)
Heat index: 99.7 F (37.6 C):1
Dew Point: 78 F (26 C)
Relative Humidity: 74%
Pressure (altimeter): 29.77 in. Hg (1008 hPa)
ob: DBBB 261700Z 20012KT 9999 SCT012 31/26 Q1008 NOSIG
cycle: 17

Station Type Date Time Source
DBBB TAF 2024/02/26 18:09 UTC NOAA